createdAt,value
2022-12-08T00:02:29.753Z,12.50
2022-12-08T00:05:22.256Z,8.43
2022-12-08T00:08:14.372Z,11.18
2022-12-08T00:10:51.368Z,6.95
2022-12-08T00:13:26.963Z,10.20
2022-12-08T00:16:08.917Z,8.88
2022-12-08T00:18:45.205Z,13.43
2022-12-08T00:21:22.157Z,8.95
2022-12-08T00:24:01.351Z,8.32
2022-12-08T00:26:37.743Z,8.93
2022-12-08T00:29:17.515Z,9.27
2022-12-08T00:31:57.030Z,10.63
2022-12-08T00:34:33.336Z,9.60
2022-12-08T00:37:09.310Z,11.80
2022-12-08T00:39:45.602Z,8.30
2022-12-08T00:42:21.833Z,10.02
2022-12-08T00:44:57.692Z,9.10
2022-12-08T00:47:36.450Z,13.32
2022-12-08T00:50:13.476Z,9.85
2022-12-08T00:52:50.791Z,9.30
2022-12-08T00:55:27.844Z,8.60
2022-12-08T00:58:04.214Z,11.43
2022-12-08T01:00:40.427Z,17.42
2022-12-08T01:03:19.526Z,11.43
2022-12-08T01:05:55.870Z,8.88
2022-12-08T01:08:32.867Z,9.32
2022-12-08T01:11:11.342Z,12.10
2022-12-08T01:13:48.668Z,15.25
2022-12-08T01:16:27.047Z,8.43
2022-12-08T01:19:06.267Z,13.15
2022-12-08T01:21:42.369Z,10.57
2022-12-08T01:24:19.309Z,6.97
2022-12-08T01:26:56.650Z,10.60
2022-12-08T01:29:33.807Z,10.27
2022-12-08T01:32:09.954Z,9.10
2022-12-08T01:34:47.794Z,8.88
2022-12-08T01:37:23.303Z,8.57
2022-12-08T01:40:00.013Z,10.55
2022-12-08T01:42:39.937Z,10.23
2022-12-08T01:45:26.403Z,13.98
2022-12-08T01:48:04.814Z,12.80
2022-12-08T01:50:43.896Z,9.40
2022-12-08T01:53:23.531Z,7.72
2022-12-08T01:56:03.427Z,11.77
2022-12-08T01:58:44.180Z,9.95
2022-12-08T02:01:21.773Z,11.45
2022-12-08T02:04:02.978Z,10.73
2022-12-08T02:06:44.205Z,11.35
2022-12-08T02:09:21.906Z,7.82
2022-12-08T02:11:59.714Z,11.43
2022-12-08T02:14:36.810Z,10.40
2022-12-08T02:17:25.200Z,11.65
2022-12-08T02:20:34.304Z,11.32
2022-12-08T02:23:19.812Z,13.13
2022-12-08T02:26:22.053Z,8.60
2022-12-08T02:29:10.769Z,8.88
2022-12-08T02:32:00.973Z,10.32
2022-12-08T02:34:47.549Z,9.98
2022-12-08T02:37:30.326Z,8.48
2022-12-08T02:40:14.665Z,8.65
2022-12-08T02:42:58.134Z,10.10
2022-12-08T02:45:39.721Z,9.20
2022-12-08T02:48:15.765Z,11.10
2022-12-08T02:50:54.097Z,8.02
2022-12-08T02:53:31.598Z,11.75
2022-12-08T02:56:17.470Z,11.60
2022-12-08T02:59:19.069Z,8.15
2022-12-08T03:02:12.597Z,8.60
2022-12-08T03:04:54.013Z,11.35
2022-12-08T03:07:37.658Z,7.68
2022-12-08T03:10:18.255Z,8.77
2022-12-08T03:12:58.904Z,7.13
2022-12-08T03:15:36.516Z,7.32
2022-12-08T03:18:19.302Z,7.45
2022-12-08T03:20:57.144Z,9.95
2022-12-08T03:23:37.542Z,7.00
2022-12-08T03:26:20.558Z,10.82
2022-12-08T03:28:59.159Z,8.23
2022-12-08T03:31:39.706Z,7.00
2022-12-08T03:34:17.020Z,7.50
2022-12-08T03:36:54.531Z,8.65
2022-12-08T03:39:32.635Z,8.20
2022-12-08T03:42:09.643Z,6.50
2022-12-08T03:44:46.012Z,5.88
2022-12-08T03:47:22.746Z,6.53
2022-12-08T03:50:00.561Z,8.50
2022-12-08T03:52:36.317Z,7.53
2022-12-08T03:55:15.403Z,6.32
2022-12-08T03:57:52.071Z,4.85
2022-12-08T04:00:29.361Z,5.90
2022-12-08T04:03:08.256Z,7.03
2022-12-08T04:05:43.887Z,5.78
2022-12-08T04:08:19.560Z,7.60
2022-12-08T04:10:58.292Z,6.70
2022-12-08T04:13:34.473Z,5.57
2022-12-08T04:16:11.539Z,10.15
2022-12-08T04:18:48.281Z,6.28
2022-12-08T04:21:25.297Z,6.13
2022-12-08T04:24:01.919Z,4.35
2022-12-08T04:26:40.325Z,5.55
2022-12-08T04:29:16.520Z,6.75
2022-12-08T04:31:52.360Z,6.97
2022-12-08T04:34:29.955Z,9.30
2022-12-08T04:37:05.747Z,6.47
2022-12-08T04:39:42.278Z,6.03
2022-12-08T04:42:20.925Z,5.65
2022-12-08T04:44:57.572Z,3.60
2022-12-08T04:47:33.204Z,5.03
2022-12-08T04:50:10.964Z,4.88
2022-12-08T04:52:48.133Z,10.20
2022-12-08T04:55:25.034Z,5.75
2022-12-08T04:58:02.384Z,4.40
2022-12-08T05:00:38.729Z,11.65
2022-12-08T05:03:15.799Z,6.70
2022-12-08T05:05:53.052Z,3.78
2022-12-08T05:08:28.842Z,6.60
2022-12-08T05:11:08.874Z,6.72
2022-12-08T05:13:47.723Z,5.55
2022-12-08T05:16:24.327Z,5.50
2022-12-08T05:19:00.801Z,11.80
2022-12-08T05:21:37.149Z,5.72
2022-12-08T05:24:14.029Z,6.38
2022-12-08T05:26:50.689Z,5.93
2022-12-08T05:29:28.888Z,6.90
2022-12-08T05:32:05.135Z,7.97
2022-12-08T05:34:41.764Z,6.03
2022-12-08T05:37:19.130Z,8.70
2022-12-08T05:39:57.171Z,4.95
2022-12-08T05:42:33.399Z,7.07
2022-12-08T05:45:11.814Z,8.82
2022-12-08T05:47:47.861Z,7.03
2022-12-08T05:50:24.357Z,7.50
2022-12-08T05:53:04.437Z,5.55
2022-12-08T05:55:41.179Z,10.65
2022-12-08T05:58:19.014Z,7.55
2022-12-08T06:00:57.227Z,7.13
2022-12-08T06:03:33.520Z,6.55
2022-12-08T06:06:12.047Z,6.75
2022-12-08T06:08:48.332Z,7.18
2022-12-08T06:11:27.546Z,8.43
2022-12-08T06:14:07.241Z,4.10
2022-12-08T06:16:47.761Z,5.40
2022-12-08T06:19:23.903Z,5.43
2022-12-08T06:22:00.158Z,6.93
2022-12-08T06:24:37.150Z,5.63
2022-12-08T06:27:13.441Z,8.05
2022-12-08T06:29:50.390Z,6.88
2022-12-08T06:32:28.500Z,5.22
2022-12-08T06:35:04.653Z,8.57
2022-12-08T06:37:42.239Z,5.28
2022-12-08T06:40:19.161Z,4.95
2022-12-08T06:42:55.944Z,5.75
2022-12-08T06:45:32.059Z,6.45
2022-12-08T06:48:12.371Z,5.65
2022-12-08T06:50:48.071Z,5.22
2022-12-08T06:53:24.943Z,6.13
2022-12-08T06:56:01.151Z,7.57
2022-12-08T06:58:38.598Z,6.97
2022-12-08T07:01:15.519Z,6.53
2022-12-08T07:03:53.398Z,6.30
2022-12-08T07:06:30.310Z,8.63
2022-12-08T07:09:07.366Z,8.80
2022-12-08T07:11:45.525Z,6.28
2022-12-08T07:14:26.593Z,5.93
2022-12-08T07:17:03.897Z,7.30
2022-12-08T07:19:43.286Z,8.35
2022-12-08T07:22:22.686Z,4.88
2022-12-08T07:24:59.192Z,5.78
2022-12-08T07:27:35.345Z,3.75
2022-12-08T07:30:13.615Z,6.68
2022-12-08T07:32:49.149Z,8.18
2022-12-08T07:35:27.508Z,6.95
2022-12-08T07:38:03.738Z,5.93
2022-12-08T07:40:40.871Z,7.78
2022-12-08T07:43:17.142Z,8.07
2022-12-08T07:45:53.884Z,7.43
2022-12-08T07:48:30.202Z,6.78
2022-12-08T07:51:11.519Z,8.23
2022-12-08T07:53:53.468Z,7.35
2022-12-08T07:56:30.755Z,6.05
2022-12-08T07:59:08.159Z,8.00
2022-12-08T08:01:46.362Z,7.50
2022-12-08T08:04:26.336Z,5.45
2022-12-08T08:07:04.494Z,6.63
2022-12-08T08:09:41.565Z,7.38
2022-12-08T08:12:33.511Z,7.53
2022-12-08T08:15:11.475Z,4.50
2022-12-08T08:17:49.347Z,6.13
2022-12-08T08:20:26.175Z,6.57
2022-12-08T08:23:07.255Z,9.40
2022-12-08T08:25:43.771Z,5.25
2022-12-08T08:28:20.253Z,5.63
2022-12-08T08:30:57.822Z,5.30
2022-12-08T08:33:34.506Z,5.03
2022-12-08T08:36:13.761Z,6.63
2022-12-08T08:38:52.200Z,5.47
2022-12-08T08:41:28.999Z,6.68
2022-12-08T08:44:05.814Z,7.35
2022-12-08T08:46:42.688Z,11.85
2022-12-08T08:49:20.295Z,5.97
2022-12-08T08:51:57.055Z,5.70
2022-12-08T08:54:38.321Z,5.60
2022-12-08T08:57:20.734Z,7.35
2022-12-08T09:00:01.018Z,7.90
2022-12-08T09:02:38.863Z,7.68
2022-12-08T09:05:16.850Z,7.25
2022-12-08T09:07:53.089Z,11.20
2022-12-08T09:10:30.695Z,8.27
2022-12-08T09:13:06.877Z,7.75
2022-12-08T09:15:43.124Z,8.38
2022-12-08T09:18:20.647Z,6.35
2022-12-08T09:20:59.520Z,10.15
2022-12-08T09:23:36.090Z,9.07
2022-12-08T09:26:14.871Z,8.20
2022-12-08T09:28:51.878Z,9.10
2022-12-08T09:31:28.964Z,7.68
2022-12-08T09:34:05.811Z,6.75
2022-12-08T09:36:41.895Z,10.07
2022-12-08T09:39:17.469Z,10.70
2022-12-08T09:42:03.001Z,6.25
2022-12-08T09:44:57.151Z,9.45
2022-12-08T09:47:37.569Z,7.43
2022-12-08T09:50:18.920Z,9.20
2022-12-08T09:53:03.155Z,7.63
2022-12-08T09:55:46.973Z,9.38
2022-12-08T09:58:33.425Z,10.48
2022-12-08T10:01:09.318Z,6.05
2022-12-08T10:03:46.607Z,8.45
2022-12-08T10:06:26.788Z,8.55
2022-12-08T10:09:11.189Z,5.95
2022-12-08T10:11:56.527Z,7.13
2022-12-08T10:14:40.151Z,5.78
2022-12-08T10:17:23.247Z,10.43
2022-12-08T10:20:04.673Z,8.60
2022-12-08T10:22:44.947Z,9.07
2022-12-08T10:25:24.752Z,9.02
2022-12-08T10:28:03.070Z,10.68
2022-12-08T10:30:41.369Z,8.23
2022-12-08T10:33:22.127Z,9.55
2022-12-08T10:36:00.085Z,10.40
2022-12-08T10:38:37.995Z,10.88
2022-12-08T10:41:19.847Z,10.98
2022-12-08T10:44:00.639Z,10.27
2022-12-08T10:46:43.048Z,13.18
2022-12-08T10:49:37.624Z,8.68
2022-12-08T10:52:27.039Z,11.70
2022-12-08T10:55:07.598Z,8.73
2022-12-08T10:57:44.785Z,13.30
2022-12-08T11:00:22.731Z,11.10
2022-12-08T11:03:04.734Z,10.63
2022-12-08T11:05:43.394Z,12.80
2022-12-08T11:08:22.360Z,8.75
2022-12-08T11:10:58.741Z,9.98
2022-12-08T11:13:35.171Z,12.13
2022-12-08T11:16:13.384Z,9.68
2022-12-08T11:18:59.487Z,8.15
2022-12-08T11:21:41.786Z,10.65
2022-12-08T11:24:27.252Z,10.38
2022-12-08T11:27:08.271Z,13.32
2022-12-08T11:29:44.737Z,13.07
2022-12-08T11:32:21.200Z,10.93
2022-12-08T11:35:05.798Z,11.38
2022-12-08T11:37:45.073Z,11.48
2022-12-08T11:40:27.034Z,7.65
2022-12-08T11:43:11.587Z,11.15
2022-12-08T11:45:48.206Z,16.10
2022-12-08T11:48:28.591Z,10.00
2022-12-08T11:51:11.589Z,13.27
2022-12-08T11:53:57.213Z,10.95
2022-12-08T11:56:39.319Z,11.80
2022-12-08T11:59:24.816Z,13.30
2022-12-08T12:02:02.020Z,11.73
2022-12-08T12:04:42.245Z,10.55
2022-12-08T12:07:51.712Z,9.40
2022-12-08T12:10:49.567Z,9.85
2022-12-08T12:13:45.075Z,9.38
2022-12-08T12:16:51.398Z,8.02
2022-12-08T12:19:29.857Z,7.72
2022-12-08T12:22:19.210Z,9.93
2022-12-08T12:24:58.847Z,11.35
2022-12-08T12:27:40.091Z,7.38
2022-12-08T12:30:26.734Z,9.77
2022-12-08T12:33:06.029Z,8.45
2022-12-08T12:35:46.158Z,9.85
2022-12-08T12:38:45.621Z,11.73
2022-12-08T12:41:30.292Z,12.52
2022-12-08T12:44:30.134Z,12.35
2022-12-08T12:47:07.790Z,13.52
2022-12-08T12:50:19.308Z,14.25
2022-12-08T12:52:56.149Z,11.80
2022-12-08T12:55:58.933Z,12.20
2022-12-08T12:58:47.079Z,11.52
2022-12-08T13:01:54.905Z,11.43
2022-12-08T13:04:40.240Z,11.80
2022-12-08T13:07:26.897Z,8.98
2022-12-08T13:10:07.057Z,11.55
2022-12-08T13:12:44.198Z,13.73
2022-12-08T13:15:39.117Z,18.42
2022-12-08T13:18:25.999Z,16.00
2022-12-08T13:21:08.770Z,16.45
2022-12-08T13:23:53.912Z,19.92
2022-12-08T13:26:31.336Z,14.88
2022-12-08T13:29:26.011Z,12.65
2022-12-08T13:32:05.592Z,15.88
2022-12-08T13:34:45.215Z,13.43
2022-12-08T13:37:30.718Z,10.38
2022-12-08T13:40:10.694Z,13.23
2022-12-08T13:42:51.298Z,13.70
2022-12-08T13:49:41.886Z,13.85
2022-12-08T13:57:38.033Z,13.55
2022-12-08T14:00:21.632Z,20.23
2022-12-08T14:03:01.619Z,14.93
2022-12-08T14:06:11.790Z,15.52
2022-12-08T14:09:06.953Z,16.98
2022-12-08T14:11:44.168Z,15.50
2022-12-08T14:14:53.803Z,14.45
2022-12-08T14:17:22.240Z,13.93
2022-12-08T14:20:06.836Z,16.65
2022-12-08T14:22:46.451Z,16.70
2022-12-08T14:25:23.461Z,15.15
2022-12-08T14:28:09.783Z,16.05
2022-12-08T14:30:47.570Z,12.18
2022-12-08T14:33:24.466Z,11.85
2022-12-08T14:36:02.626Z,15.45
2022-12-08T14:38:41.644Z,11.65
2022-12-08T14:41:19.301Z,12.98
2022-12-08T14:44:05.070Z,14.25
2022-12-08T14:46:40.819Z,13.70
2022-12-08T14:49:37.793Z,13.70
2022-12-08T14:52:17.120Z,14.90
2022-12-08T14:54:57.442Z,13.68
2022-12-08T14:57:40.764Z,9.98
2022-12-08T15:00:26.481Z,12.10
2022-12-08T15:03:02.752Z,13.63
2022-12-08T15:05:41.305Z,10.05
2022-12-08T15:08:17.768Z,14.57
2022-12-08T15:11:22.896Z,14.73
2022-12-08T15:13:59.666Z,14.98
2022-12-08T15:16:43.299Z,14.70
2022-12-08T15:19:26.256Z,13.70
2022-12-08T15:22:04.293Z,14.05
2022-12-08T15:24:41.543Z,12.18
2022-12-08T15:27:23.722Z,13.82
2022-12-08T15:29:59.389Z,17.15
2022-12-08T15:32:36.588Z,11.43
2022-12-08T15:35:14.167Z,14.63
2022-12-08T15:37:50.812Z,11.82
2022-12-08T15:40:28.935Z,15.35
2022-12-08T15:43:07.650Z,17.02
2022-12-08T15:45:57.483Z,17.10
2022-12-08T15:48:36.150Z,13.10
2022-12-08T15:51:12.418Z,14.43
2022-12-08T15:53:49.329Z,11.30
2022-12-08T15:56:28.160Z,14.20
2022-12-08T15:59:07.177Z,15.02
2022-12-08T16:01:42.912Z,15.63
2022-12-08T16:05:11.599Z,13.68
2022-12-08T16:07:26.283Z,13.20
2022-12-08T16:10:02.949Z,16.83
2022-12-08T16:13:54.709Z,17.40
2022-12-08T16:15:59.804Z,17.20
2022-12-08T16:18:39.481Z,15.50
2022-12-08T16:21:41.925Z,17.05
2022-12-08T16:24:14.602Z,17.95
2022-12-08T16:29:49.899Z,20.45
2022-12-08T16:32:27.449Z,15.15
2022-12-08T16:35:04.362Z,15.85
2022-12-08T16:37:41.606Z,13.77
2022-12-08T16:40:21.131Z,15.63
2022-12-08T16:42:55.248Z,13.70
2022-12-08T16:45:33.824Z,13.30
2022-12-08T16:48:18.435Z,15.20
2022-12-08T16:50:55.974Z,13.68
2022-12-08T16:53:32.031Z,12.52
2022-12-08T16:56:09.162Z,13.10
2022-12-08T16:58:45.541Z,13.85
2022-12-08T17:01:25.355Z,16.65
2022-12-08T17:06:59.926Z,13.65
2022-12-08T17:09:37.379Z,12.70
2022-12-08T17:12:14.077Z,16.75
2022-12-08T17:14:50.266Z,14.35
2022-12-08T17:17:25.825Z,13.25
2022-12-08T17:20:08.657Z,14.75
2022-12-08T17:22:46.747Z,13.52
2022-12-08T17:25:22.451Z,14.27
2022-12-08T17:27:59.892Z,15.40
2022-12-08T17:30:36.475Z,13.95
2022-12-08T17:33:13.228Z,12.45
2022-12-08T17:35:57.180Z,17.45
2022-12-08T17:38:34.881Z,11.75
2022-12-08T17:41:12.726Z,12.95
2022-12-08T17:43:49.422Z,14.95
2022-12-08T17:46:25.927Z,13.00
2022-12-08T17:49:02.867Z,13.68
2022-12-08T17:51:41.238Z,8.52
2022-12-08T17:54:18.794Z,10.93
2022-12-08T17:56:55.355Z,13.00
2022-12-08T17:59:32.549Z,13.68
2022-12-08T18:02:10.378Z,11.00
2022-12-08T18:04:47.604Z,12.52
2022-12-08T18:07:26.092Z,10.82
2022-12-08T18:10:03.096Z,12.48
2022-12-08T18:12:54.324Z,12.70
2022-12-08T18:15:36.114Z,15.77
2022-12-08T18:18:17.054Z,13.93
2022-12-08T18:20:54.015Z,13.48
2022-12-08T18:23:32.683Z,11.07
2022-12-08T18:26:11.611Z,12.00
2022-12-08T18:28:48.794Z,13.38
2022-12-08T18:31:27.482Z,10.35
2022-12-08T18:34:03.957Z,9.45
2022-12-08T18:36:40.165Z,13.82
2022-12-08T18:39:27.736Z,11.75
2022-12-08T18:42:24.363Z,11.40
2022-12-08T18:45:03.670Z,10.45
2022-12-08T18:47:41.347Z,10.10
2022-12-08T18:50:18.579Z,11.68
2022-12-08T18:52:55.737Z,9.25
2022-12-08T18:55:33.795Z,11.40
2022-12-08T18:58:13.910Z,9.38
2022-12-08T19:00:50.122Z,10.05
2022-12-08T19:03:27.437Z,14.55
2022-12-08T19:06:13.284Z,13.70
2022-12-08T19:08:51.757Z,14.77
2022-12-08T19:11:32.435Z,11.50
2022-12-08T19:14:09.533Z,10.32
2022-12-08T19:16:48.370Z,12.02
2022-12-08T19:19:24.815Z,7.72
2022-12-08T19:22:01.704Z,11.35
2022-12-08T19:24:38.610Z,11.95
2022-12-08T19:27:16.822Z,12.90
2022-12-08T19:29:54.733Z,11.30
2022-12-08T19:32:31.806Z,9.38
2022-12-08T19:35:09.342Z,10.55
2022-12-08T19:37:45.531Z,11.35
2022-12-08T19:40:38.961Z,9.27
2022-12-08T19:43:37.724Z,10.85
2022-12-08T19:46:15.107Z,10.10
2022-12-08T19:48:51.611Z,10.75
2022-12-08T19:51:28.604Z,11.23
2022-12-08T19:54:04.144Z,7.00
2022-12-08T19:56:40.886Z,8.90
2022-12-08T19:59:19.859Z,8.48
2022-12-08T20:01:57.459Z,10.10
2022-12-08T20:04:33.475Z,5.82
2022-12-08T20:07:10.044Z,12.90
2022-12-08T20:09:46.357Z,9.75
2022-12-08T20:12:23.637Z,10.65
2022-12-08T20:15:01.111Z,9.20
2022-12-08T20:17:38.802Z,9.48
2022-12-08T20:20:16.889Z,10.52
2022-12-08T20:22:54.013Z,9.07
2022-12-08T20:25:29.804Z,12.57
2022-12-08T20:28:06.483Z,11.70
2022-12-08T20:30:50.043Z,9.75
2022-12-08T20:33:27.718Z,8.30
2022-12-08T20:36:07.790Z,8.88
2022-12-08T20:38:44.960Z,8.88
2022-12-08T20:41:21.451Z,12.10
2022-12-08T20:43:57.940Z,8.82
2022-12-08T20:46:36.140Z,10.00
2022-12-08T20:49:13.952Z,7.95
2022-12-08T20:51:50.215Z,6.50
2022-12-08T20:54:25.765Z,8.32
2022-12-08T20:57:02.104Z,7.72
2022-12-08T20:59:38.359Z,7.28
2022-12-08T21:02:15.851Z,7.28
2022-12-08T21:04:52.355Z,6.53
2022-12-08T21:07:28.696Z,8.40
2022-12-08T21:10:05.939Z,8.05
2022-12-08T21:12:42.458Z,9.73
2022-12-08T21:15:18.898Z,6.30
2022-12-08T21:17:57.560Z,12.60
2022-12-08T21:20:35.261Z,11.05
2022-12-08T21:23:12.352Z,7.80
2022-12-08T21:25:51.747Z,8.48
2022-12-08T21:28:28.017Z,9.57
2022-12-08T21:31:05.501Z,6.90
2022-12-08T21:33:44.455Z,10.85
2022-12-08T21:36:22.162Z,9.65
2022-12-08T21:39:00.033Z,7.72
2022-12-08T21:41:52.879Z,8.75
2022-12-08T21:44:28.806Z,5.70
2022-12-08T21:47:05.473Z,7.20
2022-12-08T21:49:43.790Z,7.65
2022-12-08T21:52:21.173Z,8.00
2022-12-08T21:54:58.336Z,7.57
2022-12-08T21:57:33.921Z,4.72
2022-12-08T22:00:13.262Z,5.88
2022-12-08T22:02:50.829Z,8.02
2022-12-08T22:05:29.956Z,9.65
2022-12-08T22:08:06.931Z,8.15
2022-12-08T22:10:42.597Z,7.40
2022-12-08T22:13:19.588Z,8.13
2022-12-08T22:16:02.786Z,6.80
2022-12-08T22:18:40.179Z,6.90
2022-12-08T22:21:21.502Z,8.70
2022-12-08T22:23:59.110Z,8.20
2022-12-08T22:26:36.054Z,7.85
2022-12-08T22:29:14.568Z,7.28
2022-12-08T22:31:50.999Z,6.80
2022-12-08T22:34:27.756Z,6.68
2022-12-08T22:37:06.069Z,6.00
2022-12-08T22:39:43.324Z,5.93
2022-12-08T22:42:18.974Z,5.72
2022-12-08T22:44:56.149Z,5.20
2022-12-08T22:47:32.826Z,5.40
2022-12-08T22:50:08.926Z,7.57
2022-12-08T22:52:47.431Z,7.25
2022-12-08T22:55:24.781Z,8.50
2022-12-08T22:58:00.880Z,8.50
2022-12-08T23:00:36.735Z,5.70
2022-12-08T23:03:13.176Z,5.47
2022-12-08T23:05:49.830Z,9.02
2022-12-08T23:08:29.415Z,6.65
2022-12-08T23:11:05.712Z,7.63
2022-12-08T23:13:42.547Z,5.22
2022-12-08T23:16:19.786Z,6.43
2022-12-08T23:18:56.093Z,7.55
2022-12-08T23:21:32.776Z,7.30
2022-12-08T23:24:11.304Z,8.15
2022-12-08T23:26:48.388Z,7.50
2022-12-08T23:29:25.304Z,5.88
2022-12-08T23:32:01.309Z,6.82
2022-12-08T23:34:37.977Z,3.58
2022-12-08T23:37:15.401Z,6.80
2022-12-08T23:39:53.632Z,12.80
2022-12-08T23:42:30.623Z,8.02
2022-12-08T23:45:06.511Z,10.85
2022-12-08T23:47:43.382Z,6.60
2022-12-08T23:50:20.163Z,9.15
2022-12-08T23:52:56.533Z,5.13
2022-12-08T23:55:34.806Z,7.50
2022-12-08T23:58:12.007Z,7.25
